sensor_id;sensor_type;location;lat;lon;timestamp;temperature;humidity
14140;DHT22;7150;53.514;9.988;2022-08-21T00:01:39;24.20;70.70
14140;DHT22;7150;53.514;9.988;2022-08-21T00:04:06;24.10;71.00
14140;DHT22;7150;53.514;9.988;2022-08-21T00:06:32;24.00;71.30
14140;DHT22;7150;53.514;9.988;2022-08-21T00:08:59;24.00;71.70
14140;DHT22;7150;53.514;9.988;2022-08-21T00:11:25;23.90;71.90
14140;DHT22;7150;53.514;9.988;2022-08-21T00:13:52;23.90;72.10
14140;DHT22;7150;53.514;9.988;2022-08-21T00:16:18;23.80;72.40
14140;DHT22;7150;53.514;9.988;2022-08-21T00:18:43;23.80;72.50
14140;DHT22;7150;53.514;9.988;2022-08-21T00:21:14;23.80;72.90
14140;DHT22;7150;53.514;9.988;2022-08-21T00:23:40;23.70;73.10
14140;DHT22;7150;53.514;9.988;2022-08-21T00:26:05;23.60;73.10
14140;DHT22;7150;53.514;9.988;2022-08-21T00:28:31;23.90;73.80
14140;DHT22;7150;53.514;9.988;2022-08-21T00:30:58;23.60;73.80
14140;DHT22;7150;53.514;9.988;2022-08-21T00:33:24;23.60;74.80
14140;DHT22;7150;53.514;9.988;2022-08-21T00:35:49;23.60;74.30
14140;DHT22;7150;53.514;9.988;2022-08-21T00:38:16;23.60;74.70
14140;DHT22;7150;53.514;9.988;2022-08-21T00:40:48;23.50;74.50
14140;DHT22;7150;53.514;9.988;2022-08-21T00:43:18;23.60;75.00
14140;DHT22;7150;53.514;9.988;2022-08-21T00:45:44;23.50;75.50
14140;DHT22;7150;53.514;9.988;2022-08-21T00:48:10;23.30;75.20
14140;DHT22;7150;53.514;9.988;2022-08-21T00:50:40;23.40;75.60
14140;DHT22;7150;53.514;9.988;2022-08-21T00:53:07;23.40;76.30
14140;DHT22;7150;53.514;9.988;2022-08-21T00:55:36;23.40;76.60
14140;DHT22;7150;53.514;9.988;2022-08-21T00:58:04;23.40;76.70
14140;DHT22;7150;53.514;9.988;2022-08-21T01:00:34;23.50;76.70
14140;DHT22;7150;53.514;9.988;2022-08-21T01:03:04;23.50;76.70
14140;DHT22;7150;53.514;9.988;2022-08-21T01:05:31;23.50;76.60
14140;DHT22;7150;53.514;9.988;2022-08-21T01:07:57;23.40;76.90
14140;DHT22;7150;53.514;9.988;2022-08-21T01:10:23;23.30;76.90
14140;DHT22;7150;53.514;9.988;2022-08-21T01:12:53;23.30;77.20
14140;DHT22;7150;53.514;9.988;2022-08-21T01:15:23;23.30;77.40
14140;DHT22;7150;53.514;9.988;2022-08-21T01:17:50;23.20;77.60
14140;DHT22;7150;53.514;9.988;2022-08-21T01:20:16;23.20;77.90
14140;DHT22;7150;53.514;9.988;2022-08-21T01:22:42;23.20;77.40
14140;DHT22;7150;53.514;9.988;2022-08-21T01:25:09;23.20;78.10
14140;DHT22;7150;53.514;9.988;2022-08-21T01:27:35;23.20;78.20
14140;DHT22;7150;53.514;9.988;2022-08-21T01:30:24;23.10;78.30
14140;DHT22;7150;53.514;9.988;2022-08-21T01:32:50;23.10;78.60
14140;DHT22;7150;53.514;9.988;2022-08-21T01:35:17;23.10;78.80
14140;DHT22;7150;53.514;9.988;2022-08-21T01:37:43;23.00;78.80
14140;DHT22;7150;53.514;9.988;2022-08-21T01:40:10;23.00;79.00
14140;DHT22;7150;53.514;9.988;2022-08-21T01:42:38;23.00;79.50
14140;DHT22;7150;53.514;9.988;2022-08-21T01:45:06;23.00;79.20
14140;DHT22;7150;53.514;9.988;2022-08-21T01:47:31;23.00;79.10
14140;DHT22;7150;53.514;9.988;2022-08-21T01:49:58;23.00;79.10
14140;DHT22;7150;53.514;9.988;2022-08-21T01:52:23;23.00;79.40
14140;DHT22;7150;53.514;9.988;2022-08-21T01:54:49;23.00;79.40
14140;DHT22;7150;53.514;9.988;2022-08-21T01:57:15;22.90;79.00
14140;DHT22;7150;53.514;9.988;2022-08-21T01:59:41;22.90;79.60
14140;DHT22;7150;53.514;9.988;2022-08-21T02:02:07;22.90;79.70
14140;DHT22;7150;53.514;9.988;2022-08-21T02:04:33;22.90;79.80
14140;DHT22;7150;53.514;9.988;2022-08-21T02:07:00;22.80;79.70
14140;DHT22;7150;53.514;9.988;2022-08-21T02:09:25;22.90;79.90
14140;DHT22;7150;53.514;9.988;2022-08-21T02:11:51;22.80;79.80
14140;DHT22;7150;53.514;9.988;2022-08-21T02:14:17;22.90;80.00
14140;DHT22;7150;53.514;9.988;2022-08-21T02:16:44;22.90;79.90
14140;DHT22;7150;53.514;9.988;2022-08-21T02:19:10;22.90;79.90
14140;DHT22;7150;53.514;9.988;2022-08-21T02:21:36;22.90;79.90
14140;DHT22;7150;53.514;9.988;2022-08-21T02:24:02;23.00;79.80
14140;DHT22;7150;53.514;9.988;2022-08-21T02:26:28;23.00;79.50
14140;DHT22;7150;53.514;9.988;2022-08-21T02:28:53;23.00;79.60
14140;DHT22;7150;53.514;9.988;2022-08-21T02:31:19;23.00;79.30
14140;DHT22;7150;53.514;9.988;2022-08-21T02:33:44;23.00;79.60
14140;DHT22;7150;53.514;9.988;2022-08-21T02:36:10;23.00;79.60
14140;DHT22;7150;53.514;9.988;2022-08-21T02:38:37;22.90;79.60
14140;DHT22;7150;53.514;9.988;2022-08-21T02:41:06;22.80;79.80
14140;DHT22;7150;53.514;9.988;2022-08-21T02:43:32;22.80;79.90
14140;DHT22;7150;53.514;9.988;2022-08-21T02:45:59;22.80;79.70
14140;DHT22;7150;53.514;9.988;2022-08-21T02:48:28;22.70;79.90
14140;DHT22;7150;53.514;9.988;2022-08-21T02:51:09;22.80;80.10
14140;DHT22;7150;53.514;9.988;2022-08-21T02:53:34;22.80;79.90
14140;DHT22;7150;53.514;9.988;2022-08-21T02:56:02;22.80;79.80
14140;DHT22;7150;53.514;9.988;2022-08-21T02:58:34;22.70;79.80
14140;DHT22;7150;53.514;9.988;2022-08-21T03:01:00;22.60;79.90
14140;DHT22;7150;53.514;9.988;2022-08-21T03:03:27;22.60;79.90
14140;DHT22;7150;53.514;9.988;2022-08-21T03:05:53;22.60;80.00
14140;DHT22;7150;53.514;9.988;2022-08-21T03:08:20;22.50;79.40
14140;DHT22;7150;53.514;9.988;2022-08-21T03:10:49;22.50;80.80
14140;DHT22;7150;53.514;9.988;2022-08-21T03:13:16;22.50;80.10
14140;DHT22;7150;53.514;9.988;2022-08-21T03:15:43;22.50;79.70
14140;DHT22;7150;53.514;9.988;2022-08-21T03:18:09;22.30;79.00
14140;DHT22;7150;53.514;9.988;2022-08-21T03:20:36;22.20;80.50
14140;DHT22;7150;53.514;9.988;2022-08-21T03:23:03;22.20;80.60
14140;DHT22;7150;53.514;9.988;2022-08-21T03:25:30;22.20;80.80
14140;DHT22;7150;53.514;9.988;2022-08-21T03:28:00;22.20;80.70
14140;DHT22;7150;53.514;9.988;2022-08-21T03:30:25;22.10;80.80
14140;DHT22;7150;53.514;9.988;2022-08-21T03:32:51;22.10;80.90
14140;DHT22;7150;53.514;9.988;2022-08-21T03:35:18;22.10;80.90
14140;DHT22;7150;53.514;9.988;2022-08-21T03:37:44;22.10;80.80
14140;DHT22;7150;53.514;9.988;2022-08-21T03:40:11;22.10;80.90
14140;DHT22;7150;53.514;9.988;2022-08-21T03:42:37;22.10;81.10
14140;DHT22;7150;53.514;9.988;2022-08-21T03:45:03;22.10;81.10
14140;DHT22;7150;53.514;9.988;2022-08-21T03:47:29;22.10;81.10
14140;DHT22;7150;53.514;9.988;2022-08-21T03:49:55;22.10;81.00
14140;DHT22;7150;53.514;9.988;2022-08-21T03:52:21;22.20;80.60
14140;DHT22;7150;53.514;9.988;2022-08-21T03:54:46;22.10;81.10
14140;DHT22;7150;53.514;9.988;2022-08-21T03:57:12;22.10;81.00
14140;DHT22;7150;53.514;9.988;2022-08-21T03:59:38;22.30;81.30
14140;DHT22;7150;53.514;9.988;2022-08-21T04:02:06;22.00;81.30
14140;DHT22;7150;53.514;9.988;2022-08-21T04:04:33;22.00;81.40
14140;DHT22;7150;53.514;9.988;2022-08-21T04:06:59;22.00;81.40
14140;DHT22;7150;53.514;9.988;2022-08-21T04:09:25;22.00;81.20
14140;DHT22;7150;53.514;9.988;2022-08-21T04:11:51;22.00;81.50
14140;DHT22;7150;53.514;9.988;2022-08-21T04:14:17;22.00;81.90
14140;DHT22;7150;53.514;9.988;2022-08-21T04:16:43;22.00;81.70
14140;DHT22;7150;53.514;9.988;2022-08-21T04:19:10;22.10;81.70
14140;DHT22;7150;53.514;9.988;2022-08-21T04:21:36;22.00;81.90
14140;DHT22;7150;53.514;9.988;2022-08-21T04:24:03;22.50;82.30
14140;DHT22;7150;53.514;9.988;2022-08-21T04:26:29;22.00;82.00
14140;DHT22;7150;53.514;9.988;2022-08-21T04:28:57;21.90;81.70
14140;DHT22;7150;53.514;9.988;2022-08-21T04:31:23;22.00;82.10
14140;DHT22;7150;53.514;9.988;2022-08-21T04:33:48;21.90;82.00
14140;DHT22;7150;53.514;9.988;2022-08-21T04:36:14;22.00;82.10
14140;DHT22;7150;53.514;9.988;2022-08-21T04:38:39;21.90;82.10
14140;DHT22;7150;53.514;9.988;2022-08-21T04:41:05;22.00;82.20
14140;DHT22;7150;53.514;9.988;2022-08-21T04:43:31;22.00;81.60
14140;DHT22;7150;53.514;9.988;2022-08-21T04:45:57;22.00;82.00
14140;DHT22;7150;53.514;9.988;2022-08-21T04:48:23;22.00;82.00
14140;DHT22;7150;53.514;9.988;2022-08-21T04:50:58;22.00;82.30
14140;DHT22;7150;53.514;9.988;2022-08-21T04:53:31;21.90;82.20
14140;DHT22;7150;53.514;9.988;2022-08-21T04:56:02;21.90;82.40
14140;DHT22;7150;53.514;9.988;2022-08-21T04:58:29;21.90;82.60
14140;DHT22;7150;53.514;9.988;2022-08-21T05:00:58;21.80;82.70
14140;DHT22;7150;53.514;9.988;2022-08-21T05:03:24;21.80;82.80
14140;DHT22;7150;53.514;9.988;2022-08-21T05:05:50;21.80;82.90
14140;DHT22;7150;53.514;9.988;2022-08-21T05:08:17;21.80;81.90
14140;DHT22;7150;53.514;9.988;2022-08-21T05:10:44;21.90;83.00
14140;DHT22;7150;53.514;9.988;2022-08-21T05:13:12;21.80;83.00
14140;DHT22;7150;53.514;9.988;2022-08-21T05:15:39;21.80;82.90
14140;DHT22;7150;53.514;9.988;2022-08-21T05:18:04;21.80;83.10
14140;DHT22;7150;53.514;9.988;2022-08-21T05:20:31;21.90;83.10
14140;DHT22;7150;53.514;9.988;2022-08-21T05:23:00;22.00;83.30
14140;DHT22;7150;53.514;9.988;2022-08-21T05:25:26;21.90;83.20
14140;DHT22;7150;53.514;9.988;2022-08-21T05:27:51;22.00;83.10
14140;DHT22;7150;53.514;9.988;2022-08-21T05:30:17;22.00;83.20
14140;DHT22;7150;53.514;9.988;2022-08-21T05:32:42;22.00;83.00
14140;DHT22;7150;53.514;9.988;2022-08-21T05:35:08;22.00;82.80
14140;DHT22;7150;53.514;9.988;2022-08-21T05:37:34;22.00;83.00
14140;DHT22;7150;53.514;9.988;2022-08-21T05:40:00;22.10;82.90
14140;DHT22;7150;53.514;9.988;2022-08-21T05:42:26;22.10;82.70
14140;DHT22;7150;53.514;9.988;2022-08-21T05:44:53;22.10;82.60
14140;DHT22;7150;53.514;9.988;2022-08-21T05:47:18;22.20;82.60
14140;DHT22;7150;53.514;9.988;2022-08-21T05:49:43;22.10;82.40
14140;DHT22;7150;53.514;9.988;2022-08-21T05:52:09;22.20;82.50
14140;DHT22;7150;53.514;9.988;2022-08-21T05:54:36;22.20;82.40
14140;DHT22;7150;53.514;9.988;2022-08-21T05:57:02;22.10;82.40
14140;DHT22;7150;53.514;9.988;2022-08-21T05:59:28;22.20;82.40
14140;DHT22;7150;53.514;9.988;2022-08-21T06:01:54;22.10;82.20
14140;DHT22;7150;53.514;9.988;2022-08-21T06:04:19;22.10;82.20
14140;DHT22;7150;53.514;9.988;2022-08-21T06:06:45;22.20;82.20
14140;DHT22;7150;53.514;9.988;2022-08-21T06:09:11;22.20;82.10
14140;DHT22;7150;53.514;9.988;2022-08-21T06:11:37;22.20;81.90
14140;DHT22;7150;53.514;9.988;2022-08-21T06:14:02;22.30;82.10
14140;DHT22;7150;53.514;9.988;2022-08-21T06:16:28;22.30;81.90
14140;DHT22;7150;53.514;9.988;2022-08-21T06:18:54;22.30;82.00
14140;DHT22;7150;53.514;9.988;2022-08-21T06:21:20;22.30;81.70
14140;DHT22;7150;53.514;9.988;2022-08-21T06:23:45;22.40;81.90
14140;DHT22;7150;53.514;9.988;2022-08-21T06:26:12;22.30;81.80
14140;DHT22;7150;53.514;9.988;2022-08-21T06:28:40;22.30;81.70
14140;DHT22;7150;53.514;9.988;2022-08-21T06:31:13;22.40;81.80
14140;DHT22;7150;53.514;9.988;2022-08-21T06:33:38;22.40;81.80
14140;DHT22;7150;53.514;9.988;2022-08-21T06:36:04;22.40;81.60
14140;DHT22;7150;53.514;9.988;2022-08-21T06:38:30;22.50;81.90
14140;DHT22;7150;53.514;9.988;2022-08-21T06:40:55;22.50;81.80
14140;DHT22;7150;53.514;9.988;2022-08-21T06:43:21;22.60;81.80
14140;DHT22;7150;53.514;9.988;2022-08-21T06:45:46;22.70;81.90
14140;DHT22;7150;53.514;9.988;2022-08-21T06:48:12;22.60;81.80
14140;DHT22;7150;53.514;9.988;2022-08-21T06:50:37;22.60;81.60
14140;DHT22;7150;53.514;9.988;2022-08-21T06:53:06;22.80;81.80
14140;DHT22;7150;53.514;9.988;2022-08-21T06:55:32;22.70;81.60
14140;DHT22;7150;53.514;9.988;2022-08-21T06:57:58;22.80;81.60
14140;DHT22;7150;53.514;9.988;2022-08-21T07:00:24;22.90;81.60
14140;DHT22;7150;53.514;9.988;2022-08-21T07:02:49;22.90;81.50
14140;DHT22;7150;53.514;9.988;2022-08-21T07:05:16;22.90;81.40
14140;DHT22;7150;53.514;9.988;2022-08-21T07:07:41;22.90;81.50
14140;DHT22;7150;53.514;9.988;2022-08-21T07:10:07;22.90;81.50
14140;DHT22;7150;53.514;9.988;2022-08-21T07:12:33;23.00;81.40
14140;DHT22;7150;53.514;9.988;2022-08-21T07:14:58;23.10;81.40
14140;DHT22;7150;53.514;9.988;2022-08-21T07:17:24;23.10;81.30
14140;DHT22;7150;53.514;9.988;2022-08-21T07:19:49;23.20;81.30
14140;DHT22;7150;53.514;9.988;2022-08-21T07:22:18;23.10;81.00
14140;DHT22;7150;53.514;9.988;2022-08-21T07:24:45;23.20;81.10
14140;DHT22;7150;53.514;9.988;2022-08-21T07:27:11;23.20;80.80
14140;DHT22;7150;53.514;9.988;2022-08-21T07:29:36;23.30;80.90
14140;DHT22;7150;53.514;9.988;2022-08-21T07:32:03;23.40;81.10
14140;DHT22;7150;53.514;9.988;2022-08-21T07:34:28;23.40;81.00
14140;DHT22;7150;53.514;9.988;2022-08-21T07:36:54;23.50;81.00
14140;DHT22;7150;53.514;9.988;2022-08-21T07:39:19;23.50;80.70
14140;DHT22;7150;53.514;9.988;2022-08-21T07:41:45;23.60;80.80
14140;DHT22;7150;53.514;9.988;2022-08-21T07:44:10;23.60;80.00
14140;DHT22;7150;53.514;9.988;2022-08-21T07:46:36;23.70;80.70
14140;DHT22;7150;53.514;9.988;2022-08-21T07:49:01;23.80;80.80
14140;DHT22;7150;53.514;9.988;2022-08-21T07:51:28;23.80;80.70
14140;DHT22;7150;53.514;9.988;2022-08-21T07:53:55;23.90;80.60
14140;DHT22;7150;53.514;9.988;2022-08-21T07:56:21;23.90;80.40
14140;DHT22;7150;53.514;9.988;2022-08-21T07:58:47;24.00;80.10
14140;DHT22;7150;53.514;9.988;2022-08-21T08:01:13;24.00;80.00
14140;DHT22;7150;53.514;9.988;2022-08-21T08:03:39;24.10;79.80
14140;DHT22;7150;53.514;9.988;2022-08-21T08:06:05;24.10;79.50
14140;DHT22;7150;53.514;9.988;2022-08-21T08:08:32;24.20;79.50
14140;DHT22;7150;53.514;9.988;2022-08-21T08:10:58;24.20;79.10
14140;DHT22;7150;53.514;9.988;2022-08-21T08:13:25;24.30;79.00
14140;DHT22;7150;53.514;9.988;2022-08-21T08:15:51;24.40;78.80
14140;DHT22;7150;53.514;9.988;2022-08-21T08:18:16;24.40;78.60
14140;DHT22;7150;53.514;9.988;2022-08-21T08:20:42;24.50;78.40
14140;DHT22;7150;53.514;9.988;2022-08-21T08:23:10;24.50;78.30
14140;DHT22;7150;53.514;9.988;2022-08-21T08:25:36;24.60;77.90
14140;DHT22;7150;53.514;9.988;2022-08-21T08:28:02;24.70;77.60
14140;DHT22;7150;53.514;9.988;2022-08-21T08:30:28;24.70;77.50
14140;DHT22;7150;53.514;9.988;2022-08-21T08:32:53;24.70;76.60
14140;DHT22;7150;53.514;9.988;2022-08-21T08:35:19;24.80;76.50
14140;DHT22;7150;53.514;9.988;2022-08-21T08:37:45;24.80;75.80
14140;DHT22;7150;53.514;9.988;2022-08-21T08:40:20;24.80;75.80
14140;DHT22;7150;53.514;9.988;2022-08-21T08:42:47;24.90;75.70
14140;DHT22;7150;53.514;9.988;2022-08-21T08:45:18;24.90;75.50
14140;DHT22;7150;53.514;9.988;2022-08-21T08:47:55;24.90;75.40
14140;DHT22;7150;53.514;9.988;2022-08-21T08:50:37;25.00;75.20
14140;DHT22;7150;53.514;9.988;2022-08-21T08:53:07;25.00;75.20
14140;DHT22;7150;53.514;9.988;2022-08-21T08:55:37;25.10;75.10
14140;DHT22;7150;53.514;9.988;2022-08-21T08:58:05;25.10;74.90
14140;DHT22;7150;53.514;9.988;2022-08-21T09:00:32;25.20;74.80
14140;DHT22;7150;53.514;9.988;2022-08-21T09:03:00;25.20;74.60
14140;DHT22;7150;53.514;9.988;2022-08-21T09:05:36;25.20;74.20
14140;DHT22;7150;53.514;9.988;2022-08-21T09:11:11;25.40;74.00
14140;DHT22;7150;53.514;9.988;2022-08-21T09:27:17;25.50;72.60
14140;DHT22;7150;53.514;9.988;2022-08-21T09:29:46;25.50;72.60
14140;DHT22;7150;53.514;9.988;2022-08-21T09:32:18;25.50;72.40
14140;DHT22;7150;53.514;9.988;2022-08-21T09:40:43;25.60;71.80
14140;DHT22;7150;53.514;9.988;2022-08-21T09:43:19;25.70;71.60
14140;DHT22;7150;53.514;9.988;2022-08-21T09:45:46;25.70;71.70
14140;DHT22;7150;53.514;9.988;2022-08-21T09:48:20;25.70;71.60
14140;DHT22;7150;53.514;9.988;2022-08-21T09:50:47;25.80;71.50
14140;DHT22;7150;53.514;9.988;2022-08-21T09:53:28;25.80;71.50
14140;DHT22;7150;53.514;9.988;2022-08-21T09:58:46;25.90;71.80
14140;DHT22;7150;53.514;9.988;2022-08-21T10:01:21;25.90;71.70
14140;DHT22;7150;53.514;9.988;2022-08-21T10:03:47;26.00;71.60
14140;DHT22;7150;53.514;9.988;2022-08-21T10:06:27;26.00;71.50
14140;DHT22;7150;53.514;9.988;2022-08-21T10:09:09;26.10;71.30
14140;DHT22;7150;53.514;9.988;2022-08-21T10:11:35;26.10;71.30
14140;DHT22;7150;53.514;9.988;2022-08-21T10:14:15;26.10;71.00
14140;DHT22;7150;53.514;9.988;2022-08-21T10:17:00;26.20;71.30
14140;DHT22;7150;53.514;9.988;2022-08-21T10:27:45;26.10;70.70
14140;DHT22;7150;53.514;9.988;2022-08-21T10:30:15;26.10;70.70
14140;DHT22;7150;53.514;9.988;2022-08-21T10:35:33;26.20;70.70
14140;DHT22;7150;53.514;9.988;2022-08-21T10:40:42;26.10;69.90
14140;DHT22;7150;53.514;9.988;2022-08-21T10:49:21;26.20;69.70
14140;DHT22;7150;53.514;9.988;2022-08-21T10:52:02;26.20;68.60
14140;DHT22;7150;53.514;9.988;2022-08-21T10:54:40;26.20;67.60
14140;DHT22;7150;53.514;9.988;2022-08-21T10:57:12;26.30;66.90
14140;DHT22;7150;53.514;9.988;2022-08-21T10:59:49;26.30;66.90
14140;DHT22;7150;53.514;9.988;2022-08-21T11:02:24;26.40;66.80
14140;DHT22;7150;53.514;9.988;2022-08-21T11:05:59;26.50;66.70
14140;DHT22;7150;53.514;9.988;2022-08-21T11:08:02;26.50;66.50
14140;DHT22;7150;53.514;9.988;2022-08-21T11:10:37;26.50;66.00
14140;DHT22;7150;53.514;9.988;2022-08-21T11:13:13;26.10;65.20
14140;DHT22;7150;53.514;9.988;2022-08-21T11:16:04;26.50;65.20
14140;DHT22;7150;53.514;9.988;2022-08-21T11:18:41;26.50;65.10
14140;DHT22;7150;53.514;9.988;2022-08-21T11:24:19;26.50;65.60
14140;DHT22;7150;53.514;9.988;2022-08-21T11:27:06;26.50;65.90
14140;DHT22;7150;53.514;9.988;2022-08-21T11:29:37;26.50;66.40
14140;DHT22;7150;53.514;9.988;2022-08-21T11:32:20;26.50;65.60
14140;DHT22;7150;53.514;9.988;2022-08-21T11:37:45;26.60;64.20
14140;DHT22;7150;53.514;9.988;2022-08-21T11:40:33;26.60;64.00
14140;DHT22;7150;53.514;9.988;2022-08-21T11:43:23;26.70;63.90
14140;DHT22;7150;53.514;9.988;2022-08-21T11:45:52;26.80;62.90
14140;DHT22;7150;53.514;9.988;2022-08-21T11:51:19;26.90;61.40
14140;DHT22;7150;53.514;9.988;2022-08-21T11:53:54;26.90;61.00
14140;DHT22;7150;53.514;9.988;2022-08-21T11:56:30;26.90;60.90
14140;DHT22;7150;53.514;9.988;2022-08-21T11:59:02;26.90;60.90
14140;DHT22;7150;53.514;9.988;2022-08-21T12:01:36;26.90;60.80
14140;DHT22;7150;53.514;9.988;2022-08-21T12:04:10;27.00;61.00
14140;DHT22;7150;53.514;9.988;2022-08-21T12:06:42;27.00;60.60
14140;DHT22;7150;53.514;9.988;2022-08-21T12:09:30;27.00;60.50
14140;DHT22;7150;53.514;9.988;2022-08-21T12:14:43;27.10;60.80
14140;DHT22;7150;53.514;9.988;2022-08-21T12:17:19;27.30;60.90
14140;DHT22;7150;53.514;9.988;2022-08-21T12:19:56;27.40;60.60
14140;DHT22;7150;53.514;9.988;2022-08-21T12:22:22;27.70;60.30
14140;DHT22;7150;53.514;9.988;2022-08-21T12:24:51;27.70;60.40
14140;DHT22;7150;53.514;9.988;2022-08-21T12:27:30;27.70;60.40
14140;DHT22;7150;53.514;9.988;2022-08-21T12:30:01;27.70;59.80
14140;DHT22;7150;53.514;9.988;2022-08-21T12:32:30;27.90;59.40
14140;DHT22;7150;53.514;9.988;2022-08-21T12:35:02;28.00;58.90
14140;DHT22;7150;53.514;9.988;2022-08-21T12:37:43;28.10;58.00
14140;DHT22;7150;53.514;9.988;2022-08-21T12:40:31;28.00;57.50
14140;DHT22;7150;53.514;9.988;2022-08-21T12:42:59;27.90;57.30
14140;DHT22;7150;53.514;9.988;2022-08-21T12:45:34;28.00;57.50
14140;DHT22;7150;53.514;9.988;2022-08-21T12:48:09;28.10;57.60
14140;DHT22;7150;53.514;9.988;2022-08-21T12:50:48;28.40;57.40
14140;DHT22;7150;53.514;9.988;2022-08-21T12:53:25;28.80;57.00
14140;DHT22;7150;53.514;9.988;2022-08-21T12:55:52;29.10;56.80
14140;DHT22;7150;53.514;9.988;2022-08-21T12:58:20;29.40;56.40
14140;DHT22;7150;53.514;9.988;2022-08-21T13:01:00;29.50;55.90
14140;DHT22;7150;53.514;9.988;2022-08-21T13:03:27;29.40;55.60
14140;DHT22;7150;53.514;9.988;2022-08-21T13:05:53;29.30;55.50
14140;DHT22;7150;53.514;9.988;2022-08-21T13:08:21;29.10;56.00
14140;DHT22;7150;53.514;9.988;2022-08-21T13:10:49;29.00;55.90
14140;DHT22;7150;53.514;9.988;2022-08-21T13:13:22;28.90;55.90
14140;DHT22;7150;53.514;9.988;2022-08-21T13:15:48;28.80;56.00
14140;DHT22;7150;53.514;9.988;2022-08-21T13:18:24;28.70;56.20
14140;DHT22;7150;53.514;9.988;2022-08-21T13:20:50;28.60;56.30
14140;DHT22;7150;53.514;9.988;2022-08-21T13:23:27;28.60;56.60
14140;DHT22;7150;53.514;9.988;2022-08-21T13:25:54;28.60;57.30
14140;DHT22;7150;53.514;9.988;2022-08-21T13:28:20;28.70;56.90
14140;DHT22;7150;53.514;9.988;2022-08-21T13:30:54;28.70;56.80
14140;DHT22;7150;53.514;9.988;2022-08-21T13:33:24;28.70;56.80
14140;DHT22;7150;53.514;9.988;2022-08-21T13:38:30;28.80;56.90
14140;DHT22;7150;53.514;9.988;2022-08-21T13:40:58;28.90;56.70
14140;DHT22;7150;53.514;9.988;2022-08-21T13:43:30;28.90;56.20
14140;DHT22;7150;53.514;9.988;2022-08-21T13:45:57;28.90;55.80
14140;DHT22;7150;53.514;9.988;2022-08-21T13:48:27;28.90;55.90
14140;DHT22;7150;53.514;9.988;2022-08-21T13:50:54;29.00;56.10
14140;DHT22;7150;53.514;9.988;2022-08-21T13:53:32;29.00;55.40
14140;DHT22;7150;53.514;9.988;2022-08-21T13:55:59;29.00;54.80
14140;DHT22;7150;53.514;9.988;2022-08-21T13:58:42;29.00;54.80
14140;DHT22;7150;53.514;9.988;2022-08-21T14:01:23;29.00;54.80
14140;DHT22;7150;53.514;9.988;2022-08-21T14:03:53;29.00;55.00
14140;DHT22;7150;53.514;9.988;2022-08-21T14:06:26;29.10;54.90
14140;DHT22;7150;53.514;9.988;2022-08-21T14:08:59;29.10;54.90
14140;DHT22;7150;53.514;9.988;2022-08-21T14:11:26;29.30;55.10
14140;DHT22;7150;53.514;9.988;2022-08-21T14:13:59;29.50;55.20
14140;DHT22;7150;53.514;9.988;2022-08-21T14:16:28;29.70;55.00
14140;DHT22;7150;53.514;9.988;2022-08-21T14:21:35;30.00;54.40
14140;DHT22;7150;53.514;9.988;2022-08-21T14:24:12;30.00;54.40
14140;DHT22;7150;53.514;9.988;2022-08-21T14:27:03;29.90;54.40
14140;DHT22;7150;53.514;9.988;2022-08-21T14:29:36;29.90;54.50
14140;DHT22;7150;53.514;9.988;2022-08-21T14:32:18;29.90;54.50
14140;DHT22;7150;53.514;9.988;2022-08-21T14:34:44;29.70;54.40
14140;DHT22;7150;53.514;9.988;2022-08-21T14:37:10;29.80;54.60
14140;DHT22;7150;53.514;9.988;2022-08-21T14:39:35;29.90;54.60
14140;DHT22;7150;53.514;9.988;2022-08-21T14:42:01;30.10;54.70
14140;DHT22;7150;53.514;9.988;2022-08-21T14:44:27;30.60;54.60
14140;DHT22;7150;53.514;9.988;2022-08-21T14:46:53;31.40;54.00
14140;DHT22;7150;53.514;9.988;2022-08-21T14:49:20;32.10;53.40
14140;DHT22;7150;53.514;9.988;2022-08-21T14:51:46;32.80;51.60
14140;DHT22;7150;53.514;9.988;2022-08-21T14:54:11;33.10;49.90
14140;DHT22;7150;53.514;9.988;2022-08-21T14:56:37;34.00;50.00
14140;DHT22;7150;53.514;9.988;2022-08-21T14:59:07;34.80;49.30
14140;DHT22;7150;53.514;9.988;2022-08-21T15:01:44;35.20;48.60
14140;DHT22;7150;53.514;9.988;2022-08-21T15:04:10;35.50;47.60
14140;DHT22;7150;53.514;9.988;2022-08-21T15:06:36;36.40;45.70
14140;DHT22;7150;53.514;9.988;2022-08-21T15:09:02;37.50;44.90
14140;DHT22;7150;53.514;9.988;2022-08-21T15:11:30;38.90;42.80
14140;DHT22;7150;53.514;9.988;2022-08-21T15:14:00;40.40;42.00
14140;DHT22;7150;53.514;9.988;2022-08-21T15:16:28;41.90;40.40
14140;DHT22;7150;53.514;9.988;2022-08-21T15:18:54;43.10;39.10
14140;DHT22;7150;53.514;9.988;2022-08-21T15:21:20;43.80;37.90
14140;DHT22;7150;53.514;9.988;2022-08-21T15:23:45;43.80;37.00
14140;DHT22;7150;53.514;9.988;2022-08-21T15:26:11;43.00;37.10
14140;DHT22;7150;53.514;9.988;2022-08-21T15:28:37;41.60;37.80
14140;DHT22;7150;53.514;9.988;2022-08-21T15:31:03;40.30;38.90
14140;DHT22;7150;53.514;9.988;2022-08-21T15:33:29;39.00;39.60
14140;DHT22;7150;53.514;9.988;2022-08-21T15:35:55;37.80;40.70
14140;DHT22;7150;53.514;9.988;2022-08-21T15:38:21;36.70;41.60
14140;DHT22;7150;53.514;9.988;2022-08-21T15:40:46;35.70;42.50
14140;DHT22;7150;53.514;9.988;2022-08-21T15:43:23;35.00;43.50
14140;DHT22;7150;53.514;9.988;2022-08-21T15:45:49;34.30;44.40
14140;DHT22;7150;53.514;9.988;2022-08-21T15:48:15;33.70;45.00
14140;DHT22;7150;53.514;9.988;2022-08-21T15:50:40;33.20;45.60
14140;DHT22;7150;53.514;9.988;2022-08-21T15:53:06;32.80;46.60
14140;DHT22;7150;53.514;9.988;2022-08-21T15:55:33;32.40;46.90
14140;DHT22;7150;53.514;9.988;2022-08-21T15:57:59;32.10;47.40
14140;DHT22;7150;53.514;9.988;2022-08-21T16:00:25;31.70;47.50
14140;DHT22;7150;53.514;9.988;2022-08-21T16:02:56;31.50;47.80
14140;DHT22;7150;53.514;9.988;2022-08-21T16:05:22;31.20;47.90
14140;DHT22;7150;53.514;9.988;2022-08-21T16:07:49;30.90;48.50
14140;DHT22;7150;53.514;9.988;2022-08-21T16:10:19;30.80;49.00
14140;DHT22;7150;53.514;9.988;2022-08-21T16:12:51;30.60;49.40
14140;DHT22;7150;53.514;9.988;2022-08-21T16:15:17;30.40;49.80
14140;DHT22;7150;53.514;9.988;2022-08-21T16:17:45;30.20;50.20
14140;DHT22;7150;53.514;9.988;2022-08-21T16:20:21;30.10;50.50
14140;DHT22;7150;53.514;9.988;2022-08-21T16:22:47;30.00;50.80
14140;DHT22;7150;53.514;9.988;2022-08-21T16:25:14;30.00;51.00
14140;DHT22;7150;53.514;9.988;2022-08-21T16:27:41;29.90;51.20
14140;DHT22;7150;53.514;9.988;2022-08-21T16:30:09;29.80;51.20
14140;DHT22;7150;53.514;9.988;2022-08-21T16:32:35;29.70;51.30
14140;DHT22;7150;53.514;9.988;2022-08-21T16:35:02;29.60;51.50
14140;DHT22;7150;53.514;9.988;2022-08-21T16:37:28;29.60;51.60
14140;DHT22;7150;53.514;9.988;2022-08-21T16:39:54;29.50;52.40
14140;DHT22;7150;53.514;9.988;2022-08-21T16:42:23;29.50;52.00
14140;DHT22;7150;53.514;9.988;2022-08-21T16:44:49;29.40;52.00
14140;DHT22;7150;53.514;9.988;2022-08-21T16:47:14;29.40;52.10
14140;DHT22;7150;53.514;9.988;2022-08-21T16:49:40;29.40;52.20
14140;DHT22;7150;53.514;9.988;2022-08-21T16:52:06;29.30;52.40
14140;DHT22;7150;53.514;9.988;2022-08-21T16:54:32;29.30;52.60
14140;DHT22;7150;53.514;9.988;2022-08-21T16:56:58;29.20;52.60